Sultan Atasoy — TCYG9 — position and weather

sailwx.info

Track history (hours):
 
Tides and Currents Weather Stations Pressure Air Temp Water Temp Dewpoint Dewpoint Depression Visibility Wind Speed Wind Dir Waves Ship Positions

Sultan Atasoy

Last reported at 2016-Apr-26 13:10 UTC. Time now 2016-May-04 17:23 UTC.
Position N 35°19' E 034°00'.
Warning: this ship's position is 8 days out of date.

Length 109 m; draft 6.4 m.

Type: Ship. MMSI: 271040963.

Date/timePositionNaut miles runAvg speedWind from/ knotsBaromVisibWave heightAir tempDewpointWater temp
2016-Apr-26 13:10N 35°19' E 034°00'0 0.0
2016-Apr-26 00:19N 35°19' E 034°00'0 0.0
2016-Apr-25 23:13N 35°19' E 034°00'2 0.2
2016-Apr-25 12:05N 35°18' E 033°58'10 1.0
2016-Apr-25 02:31N 35°10' E 034°05'1310.3
2016-Apr-25 01:16N 34°58' E 034°11'810.2
2016-Apr-25 00:32N 34°52' E 034°05'2210.5
2016-Apr-24 22:26N 34°42' E 033°41'2010.4
2016-Apr-24 20:31N 34°34' E 033°19'1111.3
2016-Apr-24 19:33N 34°30' E 033°06'1111.2
2016-Apr-24 18:33N 34°29' E 032°53'1211.5
2016-Apr-24 17:32N 34°32' E 032°39'1210.8
2016-Apr-24 16:27N 34°34' E 032°25'1010.8
2016-Apr-24 15:33N 34°36' E 032°14'1110.9
2016-Apr-24 14:33N 34°38' E 032°00'1111.1
2016-Apr-24 13:33N 34°40' E 031°47'1211.0
2016-Apr-24 12:28N 34°41' E 031°33'1311.1
2016-Apr-24 11:20N 34°43' E 031°18'2211.2
2016-Apr-24 09:21N 34°47' E 030°51'29411.0
2016-Apr-23 06:32N 35°53' E 024°60'1111.1
2016-Apr-23 05:33N 35°56' E 024°47'2311.0
2016-Apr-23 03:29N 36°03' E 024°20'1011.0
2016-Apr-23 02:32N 36°07' E 024°08'1211.1
2016-Apr-23 01:25N 36°11' E 023°53'1011.3
2016-Apr-23 00:33N 36°14' E 023°42'1111.2
2016-Apr-22 23:33N 36°17' E 023°28'1211.1
2016-Apr-22 22:30N 36°20' E 023°15'  
2016-Apr-17 17:34N 39°16' E 017°18'1912.5
2016-Apr-17 16:03N 38°57' E 017°17'612.3
2016-Apr-17 15:33N 38°51' E 017°13'1212.6
2016-Apr-17 14:34N 38°42' E 017°03'2612.6
2016-Apr-17 12:30N 38°22' E 016°41'1212.5
2016-Apr-17 11:33N 38°14' E 016°31'3712.1
2016-Apr-17 08:32N 37°52' E 015°54'1111.8
2016-Apr-17 07:34N 37°55' E 015°40'1211.7
2016-Apr-17 06:34N 38°06' E 015°35'1211.5
2016-Apr-17 05:34N 38°17' E 015°41'1212.2
2016-Apr-17 04:33N 38°26' E 015°30'1212.4
2016-Apr-17 03:33N 38°35' E 015°19'1212.4
2016-Apr-17 02:33N 38°44' E 015°08'2811.9
2016-Apr-17 00:10N 39°03' E 014°41'812.1
2016-Apr-16 23:32N 39°08' E 014°34'1212.2
2016-Apr-16 22:33N 39°16' E 014°22'2512.3
2016-Apr-16 20:32N 39°33' E 013°58'1212.4
2016-Apr-16 19:33N 39°41' E 013°47'1212.4
2016-Apr-16 18:33N 39°49' E 013°35'1212.4
2016-Apr-16 17:33N 39°58' E 013°23'2512.4
2016-Apr-16 15:33N 40°15' E 012°60'1212.0
2016-Apr-16 14:33N 40°24' E 012°49'  
Track history (hours):
 
Tides and Currents Weather Stations Pressure Air Temp Water Temp Dewpoint Dewpoint Depression Visibility Wind Speed Wind Dir Waves Ship Positions

Sultan Atasoy

Last reported at 2016-Apr-26 13:10 UTC. Time now 2016-May-04 17:23 UTC.
Position N 35°19' E 034°00'.
Warning: this ship's position is 8 days out of date.

Length 109 m; draft 6.4 m.

Type: Ship. MMSI: 271040963.

Date/timePositionNaut miles runAvg speedWind from/ knotsBaromVisibWave heightAir tempDewpointWater temp
2016-Apr-26 13:10N 35°19' E 034°00'0 0.0
2016-Apr-26 00:19N 35°19' E 034°00'0 0.0
2016-Apr-25 23:13N 35°19' E 034°00'2 0.2
2016-Apr-25 12:05N 35°18' E 033°58'10 1.0
2016-Apr-25 02:31N 35°10' E 034°05'1310.3
2016-Apr-25 01:16N 34°58' E 034°11'810.2
2016-Apr-25 00:32N 34°52' E 034°05'2210.5
2016-Apr-24 22:26N 34°42' E 033°41'2010.4
2016-Apr-24 20:31N 34°34' E 033°19'1111.3
2016-Apr-24 19:33N 34°30' E 033°06'1111.2
2016-Apr-24 18:33N 34°29' E 032°53'1211.5
2016-Apr-24 17:32N 34°32' E 032°39'1210.8
2016-Apr-24 16:27N 34°34' E 032°25'1010.8
2016-Apr-24 15:33N 34°36' E 032°14'1110.9
2016-Apr-24 14:33N 34°38' E 032°00'1111.1
2016-Apr-24 13:33N 34°40' E 031°47'1211.0
2016-Apr-24 12:28N 34°41' E 031°33'1311.1
2016-Apr-24 11:20N 34°43' E 031°18'2211.2
2016-Apr-24 09:21N 34°47' E 030°51'29411.0
2016-Apr-23 06:32N 35°53' E 024°60'1111.1
2016-Apr-23 05:33N 35°56' E 024°47'2311.0
2016-Apr-23 03:29N 36°03' E 024°20'1011.0
2016-Apr-23 02:32N 36°07' E 024°08'1211.1
2016-Apr-23 01:25N 36°11' E 023°53'1011.3
2016-Apr-23 00:33N 36°14' E 023°42'1111.2
2016-Apr-22 23:33N 36°17' E 023°28'1211.1
2016-Apr-22 22:30N 36°20' E 023°15'  
2016-Apr-17 17:34N 39°16' E 017°18'1912.5
2016-Apr-17 16:03N 38°57' E 017°17'612.3
2016-Apr-17 15:33N 38°51' E 017°13'1212.6
2016-Apr-17 14:34N 38°42' E 017°03'2612.6
2016-Apr-17 12:30N 38°22' E 016°41'1212.5
2016-Apr-17 11:33N 38°14' E 016°31'3712.1
2016-Apr-17 08:32N 37°52' E 015°54'1111.8
2016-Apr-17 07:34N 37°55' E 015°40'1211.7
2016-Apr-17 06:34N 38°06' E 015°35'1211.5
2016-Apr-17 05:34N 38°17' E 015°41'1212.2
2016-Apr-17 04:33N 38°26' E 015°30'1212.4
2016-Apr-17 03:33N 38°35' E 015°19'1212.4
2016-Apr-17 02:33N 38°44' E 015°08'2811.9
2016-Apr-17 00:10N 39°03' E 014°41'812.1
2016-Apr-16 23:32N 39°08' E 014°34'1212.2
2016-Apr-16 22:33N 39°16' E 014°22'2512.3
2016-Apr-16 20:32N 39°33' E 013°58'1212.4
2016-Apr-16 19:33N 39°41' E 013°47'1212.4
2016-Apr-16 18:33N 39°49' E 013°35'1212.4
2016-Apr-16 17:33N 39°58' E 013°23'2512.4
2016-Apr-16 15:33N 40°15' E 012°60'1212.0
2016-Apr-16 14:33N 40°24' E 012°49'  

Dump ship's entire track history